Golden Triangle Regional Airport
KGTR : now visible

Airfield :











YOU CAN JOIN US ON...

 
LOGIN :

Register | Disclaimer

   EN    FR    IT 

 









Legend :    VFR   Marginal VFR   IFR   Intensive IFR   Very Intensive IFR
Visi :
Ceiling :
>= 8 km
>= 3000ft
5 to 8 km
1000 to 3000 ft
1500m to 5 km
500 to 1000 ft
800 to 1500m
200 to 500 ft
< 800m
< 200 ft
Symbols :   Thunderstorms  Fog  Heavy snow  Heavy precipitations  Wind > 20 kt






- Airport Elevation : 264 ft


KGTR - Golden Triangle Regional

CURRENT METAR :
  • 142156Z 27006KT 10SM FEW039 15/09 A2986 RMK AO2 SLP121 T01500089

EXPIRED METARs :
  • 142056Z 25007KT 10SM SCT033 16/09 A2984 RMK AO2 SLP113 T01560089 55006
  • 141956Z 24006KT 10SM SCT028 16/09 A2983 RMK AO2 SLP109 T01560094

TAF KGTR
Valid from the 14 at 18:00 until the 15 at 18:00 UTC


141745Z 1418/1518 VRB04KT P6SM BKN011 BKN017
FM142300 26003KT P6SM OVC250
FM150900 00000KT P6SM OVC007
FM151700 15010KT P6SM OVC015



MET'MAP, your aeronautical weather chart ! - Copyright ORBIFLY December 2007 - Disclaimer

ORBIFLY MET'MAP TEAM :

Programming & Development : Alexandra Zaïnal
Concept & original design : Baudouin d'Aumeries
Assistance for programming : Marc-Olivier Méhu
Technical & hardware support : Manuel Goepfert

Contact : metmap@orbifly.com




SOURCES & CREDITS :

   NOAA       Earth
Advisory